Погода Гоянияна неделю

Гояс, Бразилия

25 - 31 июля
  • 25июля
    Сегодня
    +14°
    +31°
    Ясно и безоблачно
    ВремяПогодаТемператураВлажностьДавлениеВетер, м/сВероятность осадков
    00:00Ясно и безоблачно+20°C43 %699 мм2.4 м/с5 %
    03:00Ясно и безоблачно+15°C52 %698 мм2.6 м/с5 %
    06:00Ясно и безоблачно+14°C52 %698 мм2.3 м/с5 %
    09:00Ясно и безоблачно+20°C36 %700 мм0.6 м/с5 %
    12:00Ясно и безоблачно+28°C22 %701 мм0.9 м/с5 %
    15:00Ясно и безоблачно+31°C18 %699 мм1.8 м/с5 %
    18:00Ясно и безоблачно+27°C22 %698 мм2.4 м/с5 %
    21:00Ясно и безоблачно+24°C29 %698 мм0.4 м/с5 %
  • 26июля
    Пятница
    +16°
    +32°
    Ясно и безоблачно
    ВремяПогодаТемператураВлажностьДавлениеВетер, м/сВероятность осадков
    00:00Ясно и безоблачно+19°C41 %698 мм2.2 м/с5 %
    03:00Ясно и безоблачно+17°C51 %696 мм2.6 м/с5 %
    06:00Ясно и безоблачно+15°C60 %696 мм2.7 м/с5 %
    09:00Ясно и безоблачно+21°C36 %699 мм0.7 м/с5 %
    12:00Ясно и безоблачно+28°C18 %699 мм2.1 м/с5 %
    15:00Ясно и безоблачно+31°C15 %697 мм1.6 м/с5 %
    18:00Ясно и безоблачно+28°C20 %696 мм1.9 м/с5 %
    21:00Ясно и безоблачно+25°C27 %697 мм0.5 м/с5 %
  • 27июля
    Суббота
    +17°
    +33°
    Ясно и безоблачно
    ВремяПогодаТемператураВлажностьДавлениеВетер, м/сВероятность осадков
    00:00Ясно и безоблачно+21°C34 %697 мм2.0 м/с5 %
    03:00Ясно и безоблачно+17°C46 %696 мм2.6 м/с5 %
    06:00Ясно и безоблачно+17°C47 %696 мм2.3 м/с5 %
    09:00Ясно и безоблачно+22°C37 %699 мм0.7 м/с5 %
    12:00Ясно и безоблачно+30°C21 %699 мм2.9 м/с5 %
    15:00Ясно и безоблачно+32°C20 %698 мм1.8 м/с5 %
    18:00Ясно и безоблачно+30°C24 %697 мм1.7 м/с5 %
    21:00Ясно и безоблачно+26°C34 %698 мм0.5 м/с5 %
  • 28июля
    Воскресенье
    +18°
    +34°
    Ясно и безоблачно
    ВремяПогодаТемператураВлажностьДавлениеВетер, м/сВероятность осадков
    00:00Ясно и безоблачно+22°C43 %698 мм2.2 м/с5 %
    03:00Ясно и безоблачно+19°C54 %697 мм2.3 м/с5 %
    06:00Ясно и безоблачно+18°C59 %697 мм2.8 м/с5 %
    09:00Ясно и безоблачно+25°C40 %699 мм1.0 м/с5 %
    12:00Ясно и безоблачно+31°C23 %700 мм2.6 м/с5 %
    15:00Ясно и безоблачно+33°C22 %698 мм1.8 м/с5 %
    18:00Небольшая облачность+30°C24 %697 мм0.9 м/с5 %
    21:00Облачно с прояснениями+26°C27 %698 мм0.5 м/с5 %
  • 29июля
    Понедельник
    +18°
    +34°
    Небольшая облачность
    ВремяПогодаТемператураВлажностьДавлениеВетер, м/сВероятность осадков
    00:00Ясно и безоблачно+23°C45 %698 мм2.6 м/с5 %
    03:00Практически безоблачно+20°C52 %697 мм1.8 м/с5 %
    06:00Ясно и безоблачно+19°C55 %697 мм1.9 м/с5 %
    09:00Небольшая облачность+24°C40 %700 мм0.8 м/с5 %
    12:00Облачно с прояснениями+32°C22 %700 мм1.8 м/с5 %
    15:00Небольшая облачность+34°C19 %698 мм1.8 м/с5 %
    18:00Практически безоблачно+31°C22 %698 мм2.0 м/с5 %
    21:00Небольшая облачность+27°C28 %698 мм0.5 м/с5 %
Мы используем cookies
Соглашаюсь